sensor_id;sensor_type;location;lat;lon;timestamp;temperature;humidity
14008;DHT22;61651;45.508;12.232;2022-07-12T00:02:44;27.50;99.90
14008;DHT22;61651;45.508;12.232;2022-07-12T00:05:46;27.50;99.90
14008;DHT22;61651;45.508;12.232;2022-07-12T00:08:50;27.50;99.90
14008;DHT22;61651;45.508;12.232;2022-07-12T00:11:52;27.40;99.90
14008;DHT22;61651;45.508;12.232;2022-07-12T00:14:54;27.50;99.90
14008;DHT22;61651;45.508;12.232;2022-07-12T00:17:56;27.40;99.90
14008;DHT22;61651;45.508;12.232;2022-07-12T00:20:58;27.40;99.90
14008;DHT22;61651;45.508;12.232;2022-07-12T00:24:01;27.40;99.90
14008;DHT22;61651;45.508;12.232;2022-07-12T00:27:04;27.50;99.90
14008;DHT22;61651;45.508;12.232;2022-07-12T00:30:07;27.40;99.90
14008;DHT22;61651;45.508;12.232;2022-07-12T00:33:09;27.40;99.90
14008;DHT22;61651;45.508;12.232;2022-07-12T00:36:11;27.40;99.90
14008;DHT22;61651;45.508;12.232;2022-07-12T00:39:14;27.40;99.90
14008;DHT22;61651;45.508;12.232;2022-07-12T00:42:16;27.40;99.90
14008;DHT22;61651;45.508;12.232;2022-07-12T00:45:19;27.30;99.90
14008;DHT22;61651;45.508;12.232;2022-07-12T00:48:21;27.30;99.90
14008;DHT22;61651;45.508;12.232;2022-07-12T00:51:23;27.30;99.90
14008;DHT22;61651;45.508;12.232;2022-07-12T00:54:27;27.20;99.90
14008;DHT22;61651;45.508;12.232;2022-07-12T00:57:29;27.20;99.90
14008;DHT22;61651;45.508;12.232;2022-07-12T01:00:32;27.20;99.90
14008;DHT22;61651;45.508;12.232;2022-07-12T01:03:35;27.20;99.90
14008;DHT22;61651;45.508;12.232;2022-07-12T01:06:37;27.10;99.90
14008;DHT22;61651;45.508;12.232;2022-07-12T01:09:40;27.20;99.90
14008;DHT22;61651;45.508;12.232;2022-07-12T01:12:42;27.10;99.90
14008;DHT22;61651;45.508;12.232;2022-07-12T01:15:47;27.20;99.90
14008;DHT22;61651;45.508;12.232;2022-07-12T01:18:49;27.20;99.90
14008;DHT22;61651;45.508;12.232;2022-07-12T01:21:51;27.10;99.90
14008;DHT22;61651;45.508;12.232;2022-07-12T01:24:56;27.10;99.90
14008;DHT22;61651;45.508;12.232;2022-07-12T01:27:58;27.10;99.90
14008;DHT22;61651;45.508;12.232;2022-07-12T01:31:00;27.00;99.90
14008;DHT22;61651;45.508;12.232;2022-07-12T01:34:02;27.00;99.90
14008;DHT22;61651;45.508;12.232;2022-07-12T01:37:04;27.00;99.90
14008;DHT22;61651;45.508;12.232;2022-07-12T01:40:09;26.90;99.90
14008;DHT22;61651;45.508;12.232;2022-07-12T01:43:11;26.90;99.90
14008;DHT22;61651;45.508;12.232;2022-07-12T01:46:13;26.80;99.90
14008;DHT22;61651;45.508;12.232;2022-07-12T01:49:15;26.70;99.90
14008;DHT22;61651;45.508;12.232;2022-07-12T01:52:17;26.70;99.90
14008;DHT22;61651;45.508;12.232;2022-07-12T01:55:20;26.70;99.90
14008;DHT22;61651;45.508;12.232;2022-07-12T01:58:24;26.60;99.90
14008;DHT22;61651;45.508;12.232;2022-07-12T02:01:26;26.60;99.90
14008;DHT22;61651;45.508;12.232;2022-07-12T02:04:29;26.50;99.90
14008;DHT22;61651;45.508;12.232;2022-07-12T02:07:31;26.50;99.90
14008;DHT22;61651;45.508;12.232;2022-07-12T02:10:34;26.50;99.90
14008;DHT22;61651;45.508;12.232;2022-07-12T02:13:36;26.40;99.90
14008;DHT22;61651;45.508;12.232;2022-07-12T02:16:38;26.30;99.90
14008;DHT22;61651;45.508;12.232;2022-07-12T02:19:41;26.30;99.90
14008;DHT22;61651;45.508;12.232;2022-07-12T02:22:43;26.20;99.90
14008;DHT22;61651;45.508;12.232;2022-07-12T02:25:46;26.20;99.90
14008;DHT22;61651;45.508;12.232;2022-07-12T02:28:48;26.20;99.90
14008;DHT22;61651;45.508;12.232;2022-07-12T02:31:50;26.20;99.90
14008;DHT22;61651;45.508;12.232;2022-07-12T02:34:52;26.10;99.90
14008;DHT22;61651;45.508;12.232;2022-07-12T02:37:54;26.10;99.90
14008;DHT22;61651;45.508;12.232;2022-07-12T02:40:57;26.10;99.90
14008;DHT22;61651;45.508;12.232;2022-07-12T02:43:59;26.10;99.90
14008;DHT22;61651;45.508;12.232;2022-07-12T02:47:01;26.10;99.90
14008;DHT22;61651;45.508;12.232;2022-07-12T02:50:04;26.00;99.90
14008;DHT22;61651;45.508;12.232;2022-07-12T02:53:07;26.00;99.90
14008;DHT22;61651;45.508;12.232;2022-07-12T02:56:11;26.00;99.90
14008;DHT22;61651;45.508;12.232;2022-07-12T02:59:13;26.00;99.90
14008;DHT22;61651;45.508;12.232;2022-07-12T03:02:15;26.00;99.90
14008;DHT22;61651;45.508;12.232;2022-07-12T03:05:17;26.00;99.90
14008;DHT22;61651;45.508;12.232;2022-07-12T03:08:19;25.90;99.90
14008;DHT22;61651;45.508;12.232;2022-07-12T03:11:22;25.90;99.90
14008;DHT22;61651;45.508;12.232;2022-07-12T03:14:24;25.90;99.90
14008;DHT22;61651;45.508;12.232;2022-07-12T03:17:27;26.00;99.90
14008;DHT22;61651;45.508;12.232;2022-07-12T03:20:29;25.90;99.90
14008;DHT22;61651;45.508;12.232;2022-07-12T03:23:31;26.00;99.90
14008;DHT22;61651;45.508;12.232;2022-07-12T03:26:35;26.00;99.90
14008;DHT22;61651;45.508;12.232;2022-07-12T03:29:37;25.90;99.90
14008;DHT22;61651;45.508;12.232;2022-07-12T03:32:40;25.90;99.90
14008;DHT22;61651;45.508;12.232;2022-07-12T03:35:42;26.00;99.90
14008;DHT22;61651;45.508;12.232;2022-07-12T03:38:44;25.90;99.90
14008;DHT22;61651;45.508;12.232;2022-07-12T03:41:47;26.00;99.90
14008;DHT22;61651;45.508;12.232;2022-07-12T03:44:49;26.00;99.90
14008;DHT22;61651;45.508;12.232;2022-07-12T03:47:51;26.00;99.90
14008;DHT22;61651;45.508;12.232;2022-07-12T03:50:53;26.00;99.90
14008;DHT22;61651;45.508;12.232;2022-07-12T03:53:56;26.10;99.90
14008;DHT22;61651;45.508;12.232;2022-07-12T03:56:59;26.00;99.90
14008;DHT22;61651;45.508;12.232;2022-07-12T04:00:16;26.10;99.90
14008;DHT22;61651;45.508;12.232;2022-07-12T04:03:18;26.10;99.90
14008;DHT22;61651;45.508;12.232;2022-07-12T04:06:20;26.00;99.90
14008;DHT22;61651;45.508;12.232;2022-07-12T04:09:22;26.10;99.90
14008;DHT22;61651;45.508;12.232;2022-07-12T04:12:25;26.00;99.90
14008;DHT22;61651;45.508;12.232;2022-07-12T04:15:27;26.10;99.90
14008;DHT22;61651;45.508;12.232;2022-07-12T04:18:29;26.00;99.90
14008;DHT22;61651;45.508;12.232;2022-07-12T04:21:31;26.00;99.90
14008;DHT22;61651;45.508;12.232;2022-07-12T04:24:33;26.10;99.90
14008;DHT22;61651;45.508;12.232;2022-07-12T04:27:37;26.10;99.90
14008;DHT22;61651;45.508;12.232;2022-07-12T04:30:39;26.00;99.90
14008;DHT22;61651;45.508;12.232;2022-07-12T04:33:41;26.00;99.90
14008;DHT22;61651;45.508;12.232;2022-07-12T04:36:43;26.00;99.90
14008;DHT22;61651;45.508;12.232;2022-07-12T04:39:45;25.90;99.90
14008;DHT22;61651;45.508;12.232;2022-07-12T04:42:49;25.90;99.90
14008;DHT22;61651;45.508;12.232;2022-07-12T04:45:51;25.90;99.90
14008;DHT22;61651;45.508;12.232;2022-07-12T04:48:52;26.00;99.90
14008;DHT22;61651;45.508;12.232;2022-07-12T04:51:54;26.10;99.90
14008;DHT22;61651;45.508;12.232;2022-07-12T04:54:56;26.10;99.90
14008;DHT22;61651;45.508;12.232;2022-07-12T04:58:00;26.10;99.90
14008;DHT22;61651;45.508;12.232;2022-07-12T05:01:02;26.10;99.90
14008;DHT22;61651;45.508;12.232;2022-07-12T05:04:04;26.20;99.90
14008;DHT22;61651;45.508;12.232;2022-07-12T05:07:06;26.30;99.90
14008;DHT22;61651;45.508;12.232;2022-07-12T05:10:08;26.40;99.90
14008;DHT22;61651;45.508;12.232;2022-07-12T05:13:12;26.40;99.90
14008;DHT22;61651;45.508;12.232;2022-07-12T05:16:14;26.50;99.90
14008;DHT22;61651;45.508;12.232;2022-07-12T05:19:16;26.60;99.90
14008;DHT22;61651;45.508;12.232;2022-07-12T05:22:18;26.50;99.90
14008;DHT22;61651;45.508;12.232;2022-07-12T05:25:20;26.60;99.90
14008;DHT22;61651;45.508;12.232;2022-07-12T05:28:23;26.60;99.90
14008;DHT22;61651;45.508;12.232;2022-07-12T05:31:25;26.60;99.90
14008;DHT22;61651;45.508;12.232;2022-07-12T05:34:27;26.70;99.90
14008;DHT22;61651;45.508;12.232;2022-07-12T05:37:30;26.70;99.90
14008;DHT22;61651;45.508;12.232;2022-07-12T05:40:32;26.80;99.90
14008;DHT22;61651;45.508;12.232;2022-07-12T05:43:35;26.80;99.90
14008;DHT22;61651;45.508;12.232;2022-07-12T05:46:37;26.80;99.90
14008;DHT22;61651;45.508;12.232;2022-07-12T05:49:41;26.90;99.90
14008;DHT22;61651;45.508;12.232;2022-07-12T05:52:43;26.90;99.90
14008;DHT22;61651;45.508;12.232;2022-07-12T05:56:03;26.90;99.90
14008;DHT22;61651;45.508;12.232;2022-07-12T05:59:06;26.90;99.90
14008;DHT22;61651;45.508;12.232;2022-07-12T06:02:09;26.90;99.90
14008;DHT22;61651;45.508;12.232;2022-07-12T06:05:11;26.90;99.90
14008;DHT22;61651;45.508;12.232;2022-07-12T06:08:13;27.00;99.90
14008;DHT22;61651;45.508;12.232;2022-07-12T06:11:15;27.00;99.90
14008;DHT22;61651;45.508;12.232;2022-07-12T06:14:18;27.10;99.90
14008;DHT22;61651;45.508;12.232;2022-07-12T06:17:20;27.10;99.90
14008;DHT22;61651;45.508;12.232;2022-07-12T06:20:24;27.20;99.90
14008;DHT22;61651;45.508;12.232;2022-07-12T06:23:27;27.20;99.90
14008;DHT22;61651;45.508;12.232;2022-07-12T06:26:29;27.30;99.90
14008;DHT22;61651;45.508;12.232;2022-07-12T06:29:32;27.30;99.90
14008;DHT22;61651;45.508;12.232;2022-07-12T06:32:34;27.30;99.90
14008;DHT22;61651;45.508;12.232;2022-07-12T06:35:36;27.30;99.90
14008;DHT22;61651;45.508;12.232;2022-07-12T06:38:38;27.40;99.90
14008;DHT22;61651;45.508;12.232;2022-07-12T06:41:40;27.40;99.90
14008;DHT22;61651;45.508;12.232;2022-07-12T06:44:43;27.50;99.90
14008;DHT22;61651;45.508;12.232;2022-07-12T06:47:45;27.50;99.90
14008;DHT22;61651;45.508;12.232;2022-07-12T06:50:47;27.50;99.90
14008;DHT22;61651;45.508;12.232;2022-07-12T06:53:49;27.50;99.90
14008;DHT22;61651;45.508;12.232;2022-07-12T06:56:51;27.60;99.90
14008;DHT22;61651;45.508;12.232;2022-07-12T06:59:55;27.70;99.90
14008;DHT22;61651;45.508;12.232;2022-07-12T07:02:57;27.70;99.90
14008;DHT22;61651;45.508;12.232;2022-07-12T07:05:59;27.80;99.90
14008;DHT22;61651;45.508;12.232;2022-07-12T07:09:01;27.80;99.90
14008;DHT22;61651;45.508;12.232;2022-07-12T07:12:07;27.90;99.90
14008;DHT22;61651;45.508;12.232;2022-07-12T07:15:11;27.90;99.90
14008;DHT22;61651;45.508;12.232;2022-07-12T07:18:16;28.00;99.90
14008;DHT22;61651;45.508;12.232;2022-07-12T07:21:18;28.00;99.90
14008;DHT22;61651;45.508;12.232;2022-07-12T07:24:20;28.10;99.90
14008;DHT22;61651;45.508;12.232;2022-07-12T07:27:22;28.20;99.90
14008;DHT22;61651;45.508;12.232;2022-07-12T07:30:26;28.20;99.90
14008;DHT22;61651;45.508;12.232;2022-07-12T07:33:45;28.40;99.90
14008;DHT22;61651;45.508;12.232;2022-07-12T07:36:47;28.40;99.90
14008;DHT22;61651;45.508;12.232;2022-07-12T07:39:50;28.50;99.90
14008;DHT22;61651;45.508;12.232;2022-07-12T07:42:51;28.60;99.90
14008;DHT22;61651;45.508;12.232;2022-07-12T07:45:55;28.60;99.90
14008;DHT22;61651;45.508;12.232;2022-07-12T07:48:57;28.60;99.90
14008;DHT22;61651;45.508;12.232;2022-07-12T07:51:59;28.50;99.90
14008;DHT22;61651;45.508;12.232;2022-07-12T07:55:01;28.60;99.90
14008;DHT22;61651;45.508;12.232;2022-07-12T07:58:03;28.70;99.90
14008;DHT22;61651;45.508;12.232;2022-07-12T08:01:06;28.70;99.90
14008;DHT22;61651;45.508;12.232;2022-07-12T08:04:09;28.70;99.90
14008;DHT22;61651;45.508;12.232;2022-07-12T08:07:11;28.80;99.90
14008;DHT22;61651;45.508;12.232;2022-07-12T08:10:14;28.80;99.90
14008;DHT22;61651;45.508;12.232;2022-07-12T08:13:16;28.90;99.90
14008;DHT22;61651;45.508;12.232;2022-07-12T08:16:19;28.90;99.90
14008;DHT22;61651;45.508;12.232;2022-07-12T08:19:21;29.00;99.90
14008;DHT22;61651;45.508;12.232;2022-07-12T08:22:23;29.00;99.90
14008;DHT22;61651;45.508;12.232;2022-07-12T08:25:25;29.10;99.90
14008;DHT22;61651;45.508;12.232;2022-07-12T08:28:27;29.10;99.90
14008;DHT22;61651;45.508;12.232;2022-07-12T08:31:30;29.10;99.90
14008;DHT22;61651;45.508;12.232;2022-07-12T08:34:32;29.20;99.90
14008;DHT22;61651;45.508;12.232;2022-07-12T08:37:34;29.20;99.90
14008;DHT22;61651;45.508;12.232;2022-07-12T08:40:36;29.20;99.90
14008;DHT22;61651;45.508;12.232;2022-07-12T08:43:38;29.20;99.90
14008;DHT22;61651;45.508;12.232;2022-07-12T08:46:41;29.30;99.90
14008;DHT22;61651;45.508;12.232;2022-07-12T08:50:10;29.30;99.90
14008;DHT22;61651;45.508;12.232;2022-07-12T08:53:13;29.40;99.90
14008;DHT22;61651;45.508;12.232;2022-07-12T08:56:30;29.50;99.90
14008;DHT22;61651;45.508;12.232;2022-07-12T08:59:32;29.60;99.90
14008;DHT22;61651;45.508;12.232;2022-07-12T09:02:44;29.70;99.90
14008;DHT22;61651;45.508;12.232;2022-07-12T09:05:49;29.70;99.90
14008;DHT22;61651;45.508;12.232;2022-07-12T09:08:52;29.70;99.10
14008;DHT22;61651;45.508;12.232;2022-07-12T09:11:55;29.70;99.90
14008;DHT22;61651;45.508;12.232;2022-07-12T09:15:13;29.80;99.70
14008;DHT22;61651;45.508;12.232;2022-07-12T09:18:17;30.10;98.80
14008;DHT22;61651;45.508;12.232;2022-07-12T09:21:27;30.20;98.20
14008;DHT22;61651;45.508;12.232;2022-07-12T09:24:30;30.20;99.50
14008;DHT22;61651;45.508;12.232;2022-07-12T09:27:32;30.20;99.50
14008;DHT22;61651;45.508;12.232;2022-07-12T09:30:35;29.90;99.70
14008;DHT22;61651;45.508;12.232;2022-07-12T09:33:40;30.10;99.90
14008;DHT22;61651;45.508;12.232;2022-07-12T09:36:59;30.10;99.90
14008;DHT22;61651;45.508;12.232;2022-07-12T09:40:01;30.30;99.90
14008;DHT22;61651;45.508;12.232;2022-07-12T09:43:03;30.50;99.90
14008;DHT22;61651;45.508;12.232;2022-07-12T09:46:06;30.60;99.90
14008;DHT22;61651;45.508;12.232;2022-07-12T09:49:10;30.80;99.90
14008;DHT22;61651;45.508;12.232;2022-07-12T09:52:18;30.90;99.90
14008;DHT22;61651;45.508;12.232;2022-07-12T09:55:24;31.00;99.90
14008;DHT22;61651;45.508;12.232;2022-07-12T09:58:31;31.20;99.90
14008;DHT22;61651;45.508;12.232;2022-07-12T10:01:33;30.80;99.50
14008;DHT22;61651;45.508;12.232;2022-07-12T10:04:36;30.80;99.90
14008;DHT22;61651;45.508;12.232;2022-07-12T10:07:39;30.90;99.70
14008;DHT22;61651;45.508;12.232;2022-07-12T10:10:41;30.70;99.90
14008;DHT22;61651;45.508;12.232;2022-07-12T10:13:44;30.90;99.90
14008;DHT22;61651;45.508;12.232;2022-07-12T10:16:50;31.10;99.90
14008;DHT22;61651;45.508;12.232;2022-07-12T10:23:30;31.30;99.90
14008;DHT22;61651;45.508;12.232;2022-07-12T10:26:37;31.60;99.90
14008;DHT22;61651;45.508;12.232;2022-07-12T10:29:40;31.80;99.90
14008;DHT22;61651;45.508;12.232;2022-07-12T10:32:44;31.90;99.90
14008;DHT22;61651;45.508;12.232;2022-07-12T10:36:00;32.00;99.90
14008;DHT22;61651;45.508;12.232;2022-07-12T10:39:13;32.20;99.90
14008;DHT22;61651;45.508;12.232;2022-07-12T10:42:16;32.20;99.60
14008;DHT22;61651;45.508;12.232;2022-07-12T10:45:18;32.20;99.70
14008;DHT22;61651;45.508;12.232;2022-07-12T10:48:23;31.90;99.80
14008;DHT22;61651;45.508;12.232;2022-07-12T10:51:25;31.90;99.90
14008;DHT22;61651;45.508;12.232;2022-07-12T10:54:29;32.10;99.90
14008;DHT22;61651;45.508;12.232;2022-07-12T10:57:38;32.10;99.90
14008;DHT22;61651;45.508;12.232;2022-07-12T11:00:40;31.90;99.30
14008;DHT22;61651;45.508;12.232;2022-07-12T11:03:44;31.70;99.20
14008;DHT22;61651;45.508;12.232;2022-07-12T11:06:46;31.30;99.90
14008;DHT22;61651;45.508;12.232;2022-07-12T11:09:52;31.60;99.40
14008;DHT22;61651;45.508;12.232;2022-07-12T11:12:54;31.70;99.20
14008;DHT22;61651;45.508;12.232;2022-07-12T11:15:57;31.90;97.70
14008;DHT22;61651;45.508;12.232;2022-07-12T11:18:59;32.20;98.10
14008;DHT22;61651;45.508;12.232;2022-07-12T11:22:02;32.30;98.50
14008;DHT22;61651;45.508;12.232;2022-07-12T11:25:07;32.40;98.70
14008;DHT22;61651;45.508;12.232;2022-07-12T11:28:10;32.60;97.20
14008;DHT22;61651;45.508;12.232;2022-07-12T11:31:13;32.70;97.80
14008;DHT22;61651;45.508;12.232;2022-07-12T11:34:22;32.80;98.30
14008;DHT22;61651;45.508;12.232;2022-07-12T11:37:25;32.90;96.80
14008;DHT22;61651;45.508;12.232;2022-07-12T11:40:29;32.60;96.70
14008;DHT22;61651;45.508;12.232;2022-07-12T11:43:32;32.40;96.40
14008;DHT22;61651;45.508;12.232;2022-07-12T11:46:34;32.30;95.60
14008;DHT22;61651;45.508;12.232;2022-07-12T11:49:37;32.40;96.70
14008;DHT22;61651;45.508;12.232;2022-07-12T11:52:44;32.60;94.40
14008;DHT22;61651;45.508;12.232;2022-07-12T11:55:49;32.50;94.60
14008;DHT22;61651;45.508;12.232;2022-07-12T11:58:55;32.50;94.20
14008;DHT22;61651;45.508;12.232;2022-07-12T12:02:08;32.70;93.10
14008;DHT22;61651;45.508;12.232;2022-07-12T12:05:10;32.60;93.10
14008;DHT22;61651;45.508;12.232;2022-07-12T12:08:14;32.50;93.80
14008;DHT22;61651;45.508;12.232;2022-07-12T12:11:26;32.70;91.80
14008;DHT22;61651;45.508;12.232;2022-07-12T12:14:29;32.80;92.50
14008;DHT22;61651;45.508;12.232;2022-07-12T12:17:36;33.00;90.20
14008;DHT22;61651;45.508;12.232;2022-07-12T12:20:40;33.40;92.00
14008;DHT22;61651;45.508;12.232;2022-07-12T12:23:42;33.50;91.60
14008;DHT22;61651;45.508;12.232;2022-07-12T12:26:46;33.50;91.70
14008;DHT22;61651;45.508;12.232;2022-07-12T12:29:48;33.50;89.90
14008;DHT22;61651;45.508;12.232;2022-07-12T12:32:52;33.40;91.40
14008;DHT22;61651;45.508;12.232;2022-07-12T12:35:55;33.40;93.00
14008;DHT22;61651;45.508;12.232;2022-07-12T12:38:58;33.60;92.00
14008;DHT22;61651;45.508;12.232;2022-07-12T12:42:02;33.70;92.10
14008;DHT22;61651;45.508;12.232;2022-07-12T12:45:05;33.80;92.40
14008;DHT22;61651;45.508;12.232;2022-07-12T12:48:07;33.90;92.60
14008;DHT22;61651;45.508;12.232;2022-07-12T12:51:10;34.10;92.70
14008;DHT22;61651;45.508;12.232;2022-07-12T12:54:12;34.40;92.50
14008;DHT22;61651;45.508;12.232;2022-07-12T12:57:15;34.50;92.10
14008;DHT22;61651;45.508;12.232;2022-07-12T13:00:18;34.40;93.00
14008;DHT22;61651;45.508;12.232;2022-07-12T13:03:21;34.10;92.80
14008;DHT22;61651;45.508;12.232;2022-07-12T13:06:25;34.30;92.20
14008;DHT22;61651;45.508;12.232;2022-07-12T13:09:29;34.00;91.20
14008;DHT22;61651;45.508;12.232;2022-07-12T13:12:33;34.00;92.70
14008;DHT22;61651;45.508;12.232;2022-07-12T13:15:36;34.10;94.30
14008;DHT22;61651;45.508;12.232;2022-07-12T13:18:38;34.50;94.10
14008;DHT22;61651;45.508;12.232;2022-07-12T13:21:40;34.80;93.40
14008;DHT22;61651;45.508;12.232;2022-07-12T13:24:42;35.00;93.40
14008;DHT22;61651;45.508;12.232;2022-07-12T13:27:46;35.10;93.80
14008;DHT22;61651;45.508;12.232;2022-07-12T13:30:48;35.30;93.60
14008;DHT22;61651;45.508;12.232;2022-07-12T13:33:50;35.40;93.50
14008;DHT22;61651;45.508;12.232;2022-07-12T13:36:52;35.40;92.10
14008;DHT22;61651;45.508;12.232;2022-07-12T13:39:54;35.60;93.80
14008;DHT22;61651;45.508;12.232;2022-07-12T13:43:18;35.60;92.70
14008;DHT22;61651;45.508;12.232;2022-07-12T13:46:20;35.80;93.20
14008;DHT22;61651;45.508;12.232;2022-07-12T13:49:22;36.00;92.60
14008;DHT22;61651;45.508;12.232;2022-07-12T13:52:24;35.80;90.90
14008;DHT22;61651;45.508;12.232;2022-07-12T13:55:26;35.80;91.40
14008;DHT22;61651;45.508;12.232;2022-07-12T13:58:29;36.00;90.80
14008;DHT22;61651;45.508;12.232;2022-07-12T14:01:31;36.00;90.50
14008;DHT22;61651;45.508;12.232;2022-07-12T14:04:33;36.20;90.70
14008;DHT22;61651;45.508;12.232;2022-07-12T14:07:36;36.20;91.00
14008;DHT22;61651;45.508;12.232;2022-07-12T14:10:38;36.40;90.00
14008;DHT22;61651;45.508;12.232;2022-07-12T14:13:42;36.30;90.20
14008;DHT22;61651;45.508;12.232;2022-07-12T14:16:44;36.50;90.80
14008;DHT22;61651;45.508;12.232;2022-07-12T14:19:47;36.60;91.00
14008;DHT22;61651;45.508;12.232;2022-07-12T14:22:49;36.70;90.30
14008;DHT22;61651;45.508;12.232;2022-07-12T14:25:53;36.60;89.20
14008;DHT22;61651;45.508;12.232;2022-07-12T14:28:56;36.60;89.60
14008;DHT22;61651;45.508;12.232;2022-07-12T14:32:09;36.90;88.60
14008;DHT22;61651;45.508;12.232;2022-07-12T14:35:13;37.30;89.10
14008;DHT22;61651;45.508;12.232;2022-07-12T14:38:15;37.40;90.00
14008;DHT22;61651;45.508;12.232;2022-07-12T14:41:17;37.70;90.60
14008;DHT22;61651;45.508;12.232;2022-07-12T14:44:20;37.90;89.50
14008;DHT22;61651;45.508;12.232;2022-07-12T14:47:22;37.60;86.60
14008;DHT22;61651;45.508;12.232;2022-07-12T14:50:26;37.80;85.40
14008;DHT22;61651;45.508;12.232;2022-07-12T14:53:28;37.10;87.80
14008;DHT22;61651;45.508;12.232;2022-07-12T14:56:30;37.30;87.50
14008;DHT22;61651;45.508;12.232;2022-07-12T14:59:33;37.80;89.40
14008;DHT22;61651;45.508;12.232;2022-07-12T15:02:35;38.00;88.70
14008;DHT22;61651;45.508;12.232;2022-07-12T15:05:37;37.70;87.50
14008;DHT22;61651;45.508;12.232;2022-07-12T15:08:40;37.70;87.40
14008;DHT22;61651;45.508;12.232;2022-07-12T15:11:42;37.60;84.00
14008;DHT22;61651;45.508;12.232;2022-07-12T15:14:45;37.50;87.20
14008;DHT22;61651;45.508;12.232;2022-07-12T15:17:47;37.70;85.70
14008;DHT22;61651;45.508;12.232;2022-07-12T15:20:49;37.90;87.70
14008;DHT22;61651;45.508;12.232;2022-07-12T15:23:51;37.60;89.60
14008;DHT22;61651;45.508;12.232;2022-07-12T15:26:54;37.60;87.90
14008;DHT22;61651;45.508;12.232;2022-07-12T15:29:57;37.70;88.00
14008;DHT22;61651;45.508;12.232;2022-07-12T15:33:00;37.90;87.40
14008;DHT22;61651;45.508;12.232;2022-07-12T15:36:02;37.60;87.70
14008;DHT22;61651;45.508;12.232;2022-07-12T15:39:04;37.70;88.20
14008;DHT22;61651;45.508;12.232;2022-07-12T15:42:06;37.60;88.00
14008;DHT22;61651;45.508;12.232;2022-07-12T15:45:10;37.40;89.10
14008;DHT22;61651;45.508;12.232;2022-07-12T15:48:12;37.30;88.50
14008;DHT22;61651;45.508;12.232;2022-07-12T15:51:14;37.20;90.00
14008;DHT22;61651;45.508;12.232;2022-07-12T15:54:16;37.10;90.30
14008;DHT22;61651;45.508;12.232;2022-07-12T15:57:17;37.30;90.50
14008;DHT22;61651;45.508;12.232;2022-07-12T16:00:20;36.90;89.90
14008;DHT22;61651;45.508;12.232;2022-07-12T16:03:23;36.90;89.80
14008;DHT22;61651;45.508;12.232;2022-07-12T16:06:25;36.60;90.10
14008;DHT22;61651;45.508;12.232;2022-07-12T16:09:28;35.90;90.50
14008;DHT22;61651;45.508;12.232;2022-07-12T16:12:31;35.20;90.40
14008;DHT22;61651;45.508;12.232;2022-07-12T16:15:35;35.00;90.10
14008;DHT22;61651;45.508;12.232;2022-07-12T16:18:37;34.50;83.90
14008;DHT22;61651;45.508;12.232;2022-07-12T16:21:39;34.20;88.30
14008;DHT22;61651;45.508;12.232;2022-07-12T16:24:42;33.80;89.50
14008;DHT22;61651;45.508;12.232;2022-07-12T16:27:44;33.90;89.80
14008;DHT22;61651;45.508;12.232;2022-07-12T16:30:47;33.60;89.40
14008;DHT22;61651;45.508;12.232;2022-07-12T16:33:49;33.40;89.00
14008;DHT22;61651;45.508;12.232;2022-07-12T16:36:51;33.20;89.60
14008;DHT22;61651;45.508;12.232;2022-07-12T16:39:53;33.20;90.20
14008;DHT22;61651;45.508;12.232;2022-07-12T16:42:55;33.10;90.20
14008;DHT22;61651;45.508;12.232;2022-07-12T16:46:00;32.60;90.00
14008;DHT22;61651;45.508;12.232;2022-07-12T16:49:02;32.50;91.60
14008;DHT22;61651;45.508;12.232;2022-07-12T16:52:05;32.30;92.00
14008;DHT22;61651;45.508;12.232;2022-07-12T16:55:08;32.20;92.40
14008;DHT22;61651;45.508;12.232;2022-07-12T16:58:10;32.00;92.90
14008;DHT22;61651;45.508;12.232;2022-07-12T17:01:13;31.90;92.90
14008;DHT22;61651;45.508;12.232;2022-07-12T17:04:15;31.70;93.50
14008;DHT22;61651;45.508;12.232;2022-07-12T17:07:17;31.60;94.60
14008;DHT22;61651;45.508;12.232;2022-07-12T17:10:19;31.40;94.40
14008;DHT22;61651;45.508;12.232;2022-07-12T17:13:21;31.40;94.30
14008;DHT22;61651;45.508;12.232;2022-07-12T17:16:24;31.30;94.70
14008;DHT22;61651;45.508;12.232;2022-07-12T17:19:26;31.20;95.40
14008;DHT22;61651;45.508;12.232;2022-07-12T17:22:28;31.10;95.40
14008;DHT22;61651;45.508;12.232;2022-07-12T17:25:30;31.10;95.80
14008;DHT22;61651;45.508;12.232;2022-07-12T17:28:32;30.90;95.90
14008;DHT22;61651;45.508;12.232;2022-07-12T17:31:35;30.70;96.70
14008;DHT22;61651;45.508;12.232;2022-07-12T17:34:37;30.50;96.00
14008;DHT22;61651;45.508;12.232;2022-07-12T17:37:40;30.40;95.70
14008;DHT22;61651;45.508;12.232;2022-07-12T17:40:42;30.50;95.80
14008;DHT22;61651;45.508;12.232;2022-07-12T17:43:45;30.40;95.40
14008;DHT22;61651;45.508;12.232;2022-07-12T17:46:48;30.20;95.20
14008;DHT22;61651;45.508;12.232;2022-07-12T17:49:50;30.20;95.70
14008;DHT22;61651;45.508;12.232;2022-07-12T17:52:52;30.40;95.80
14008;DHT22;61651;45.508;12.232;2022-07-12T17:55:54;30.40;94.90
14008;DHT22;61651;45.508;12.232;2022-07-12T17:58:56;30.50;94.90
14008;DHT22;61651;45.508;12.232;2022-07-12T18:02:00;30.60;95.00
14008;DHT22;61651;45.508;12.232;2022-07-12T18:05:03;30.60;95.00
14008;DHT22;61651;45.508;12.232;2022-07-12T18:08:05;30.60;94.80
14008;DHT22;61651;45.508;12.232;2022-07-12T18:11:08;30.50;94.60
14008;DHT22;61651;45.508;12.232;2022-07-12T18:14:23;30.40;94.90
14008;DHT22;61651;45.508;12.232;2022-07-12T18:17:45;30.50;95.40
14008;DHT22;61651;45.508;12.232;2022-07-12T18:21:05;30.50;95.40
14008;DHT22;61651;45.508;12.232;2022-07-12T18:24:07;30.50;95.80
14008;DHT22;61651;45.508;12.232;2022-07-12T18:27:09;30.50;96.60
14008;DHT22;61651;45.508;12.232;2022-07-12T18:30:11;30.40;96.70
14008;DHT22;61651;45.508;12.232;2022-07-12T18:33:15;30.30;97.10
14008;DHT22;61651;45.508;12.232;2022-07-12T18:36:17;30.30;97.50
14008;DHT22;61651;45.508;12.232;2022-07-12T18:39:19;30.30;97.90
14008;DHT22;61651;45.508;12.232;2022-07-12T18:42:21;30.20;98.00
14008;DHT22;61651;45.508;12.232;2022-07-12T18:45:23;30.20;98.90
14008;DHT22;61651;45.508;12.232;2022-07-12T18:48:27;30.10;99.10
14008;DHT22;61651;45.508;12.232;2022-07-12T18:51:30;30.00;99.50
14008;DHT22;61651;45.508;12.232;2022-07-12T18:54:32;30.00;99.80
14008;DHT22;61651;45.508;12.232;2022-07-12T18:57:34;29.90;99.90
14008;DHT22;61651;45.508;12.232;2022-07-12T19:00:37;29.80;99.90
14008;DHT22;61651;45.508;12.232;2022-07-12T19:03:41;29.80;99.90